createdAt,value
2017-09-28T00:00:57.596Z,45.00
2017-09-28T00:03:24.001Z,43.30
2017-09-28T00:05:50.411Z,53.47
2017-09-28T00:08:17.562Z,49.13
2017-09-28T00:10:43.963Z,50.50
2017-09-28T00:13:11.102Z,62.57
2017-09-28T00:15:37.534Z,57.33
2017-09-28T00:18:03.914Z,60.13
2017-09-28T00:20:30.292Z,64.53
2017-09-28T00:22:56.687Z,50.43
2017-09-28T00:25:23.088Z,58.83
2017-09-28T00:27:50.202Z,62.87
2017-09-28T00:30:16.636Z,52.47
2017-09-28T00:32:43.079Z,55.77
2017-09-28T00:35:10.490Z,53.10
2017-09-28T00:37:37.008Z,57.33
2017-09-28T00:40:03.457Z,66.33
2017-09-28T00:42:29.897Z,56.40
2017-09-28T00:44:56.450Z,55.63
2017-09-28T00:47:22.932Z,52.77
2017-09-28T00:49:49.396Z,50.63
2017-09-28T00:52:15.839Z,52.17
2017-09-28T00:54:42.261Z,69.10
2017-09-28T00:57:08.690Z,57.10
2017-09-28T00:59:35.159Z,76.40
2017-09-28T01:02:01.605Z,64.63
2017-09-28T01:04:28.756Z,57.43
2017-09-28T01:06:55.942Z,58.20
2017-09-28T01:09:22.591Z,63.97
2017-09-28T01:11:49.035Z,74.80
2017-09-28T01:14:16.182Z,84.50
2017-09-28T01:16:42.632Z,74.87
2017-09-28T01:19:09.054Z,83.30
2017-09-28T01:21:35.508Z,65.03
2017-09-28T01:24:03.468Z,86.27
2017-09-28T01:26:29.882Z,67.90
2017-09-28T01:28:56.336Z,77.50
2017-09-28T01:31:22.785Z,82.00
2017-09-28T01:33:49.223Z,73.07
2017-09-28T01:36:16.434Z,87.07
2017-09-28T01:38:42.854Z,70.47
2017-09-28T01:41:09.374Z,81.40
2017-09-28T01:43:35.826Z,94.73
2017-09-28T01:46:02.269Z,93.27
2017-09-28T01:48:28.713Z,82.27
2017-09-28T01:50:55.904Z,90.43
2017-09-28T01:53:23.057Z,99.00
2017-09-28T01:55:50.293Z,94.43
2017-09-28T01:58:16.732Z,91.33
2017-09-28T02:00:43.911Z,101.57
2017-09-28T02:03:10.390Z,91.40
2017-09-28T02:05:36.825Z,99.90
2017-09-28T02:08:03.298Z,90.43
2017-09-28T02:10:29.761Z,104.30
2017-09-28T02:12:56.173Z,90.57
2017-09-28T02:15:23.341Z,110.70
2017-09-28T02:17:49.767Z,89.37
2017-09-28T02:20:16.173Z,91.77
2017-09-28T02:22:43.382Z,90.80
2017-09-28T02:25:09.811Z,88.27
2017-09-28T02:27:36.280Z,93.83
2017-09-28T02:30:03.485Z,94.13
2017-09-28T02:32:29.914Z,103.03
2017-09-28T02:34:56.343Z,90.27
2017-09-28T02:37:22.774Z,103.47
2017-09-28T02:39:49.211Z,106.70
2017-09-28T02:42:15.623Z,95.17
2017-09-28T02:44:42.181Z,107.10
2017-09-28T02:47:08.618Z,103.97
2017-09-28T02:49:35.025Z,110.27
2017-09-28T02:52:01.462Z,96.80
2017-09-28T02:54:27.938Z,88.20
2017-09-28T02:56:54.359Z,103.93
2017-09-28T02:59:20.744Z,108.30
2017-09-28T03:01:47.897Z,90.20
2017-09-28T03:04:15.316Z,88.60
2017-09-28T03:06:41.721Z,88.87
2017-09-28T03:09:08.133Z,103.13
2017-09-28T03:11:34.597Z,99.70
2017-09-28T03:14:01.006Z,94.47
2017-09-28T03:16:27.431Z,94.47
2017-09-28T03:18:53.825Z,87.47
2017-09-28T03:21:20.289Z,90.00
2017-09-28T03:23:47.452Z,85.60
2017-09-28T03:26:13.862Z,88.43
2017-09-28T03:28:41.034Z,94.77
2017-09-28T03:31:08.177Z,85.00
2017-09-28T03:33:34.593Z,100.73
2017-09-28T03:36:01.779Z,91.10
2017-09-28T03:38:28.156Z,87.17
2017-09-28T03:40:54.557Z,100.43
2017-09-28T03:43:20.956Z,89.20
2017-09-28T03:45:47.338Z,96.83
2017-09-28T03:48:13.757Z,92.37
2017-09-28T03:50:40.147Z,100.40
2017-09-28T03:53:06.566Z,91.63
2017-09-28T03:55:33.877Z,80.83
2017-09-28T03:58:00.326Z,95.30
2017-09-28T04:00:26.738Z,86.77
2017-09-28T04:02:53.172Z,81.90
2017-09-28T04:05:19.574Z,95.13
2017-09-28T04:07:45.999Z,86.30
2017-09-28T04:10:12.400Z,84.70
2017-09-28T04:12:38.942Z,83.10
2017-09-28T04:15:05.461Z,86.83
2017-09-28T04:17:33.339Z,77.93
2017-09-28T04:19:59.736Z,90.60
2017-09-28T04:22:26.190Z,75.10
2017-09-28T04:24:52.675Z,81.03
2017-09-28T04:27:19.085Z,97.23
2017-09-28T04:29:45.510Z,91.10
2017-09-28T04:32:12.007Z,86.63
2017-09-28T04:34:39.169Z,80.00
2017-09-28T04:37:05.591Z,75.43
2017-09-28T04:39:32.000Z,93.07
2017-09-28T04:41:58.438Z,78.33
2017-09-28T04:44:24.820Z,85.80
2017-09-28T04:46:51.221Z,82.50
2017-09-28T04:49:17.588Z,80.53
2017-09-28T04:51:44.008Z,79.37
2017-09-28T04:54:10.385Z,77.03
2017-09-28T04:56:37.490Z,87.03
2017-09-28T04:59:03.947Z,86.57
2017-09-28T05:01:31.205Z,84.77
2017-09-28T05:03:58.344Z,74.80
2017-09-28T05:06:25.504Z,78.33
2017-09-28T05:08:52.668Z,77.70
2017-09-28T05:11:19.082Z,89.23
2017-09-28T05:13:46.259Z,84.47
2017-09-28T05:16:12.791Z,82.93
2017-09-28T05:18:39.201Z,76.63
2017-09-28T05:21:06.428Z,86.57
2017-09-28T05:23:32.845Z,88.87
2017-09-28T05:25:59.266Z,86.73
2017-09-28T05:28:25.696Z,89.00
2017-09-28T05:30:52.091Z,75.40
2017-09-28T05:33:19.265Z,81.93
2017-09-28T05:35:45.737Z,82.93
2017-09-28T05:38:12.188Z,84.70
2017-09-28T05:40:38.653Z,86.90
2017-09-28T05:43:05.099Z,81.87
2017-09-28T05:45:31.522Z,115.90
2017-09-28T05:47:57.971Z,94.80
2017-09-28T05:50:24.383Z,106.20
2017-09-28T05:52:50.856Z,86.00
2017-09-28T05:55:17.280Z,89.10
2017-09-28T05:57:43.722Z,89.60
2017-09-28T06:00:10.210Z,97.60
2017-09-28T06:02:37.379Z,103.33
2017-09-28T06:05:04.605Z,114.87
2017-09-28T06:07:31.765Z,105.90
2017-09-28T06:09:58.921Z,93.90
2017-09-28T06:12:25.345Z,109.27
2017-09-28T06:14:51.892Z,88.93
2017-09-28T06:17:18.373Z,103.37
2017-09-28T06:19:44.797Z,100.67
2017-09-28T06:22:11.183Z,119.07
2017-09-28T06:24:38.460Z,91.30
2017-09-28T06:27:04.939Z,93.50
2017-09-28T06:29:31.340Z,95.93
2017-09-28T06:31:57.842Z,86.30
2017-09-28T06:34:24.987Z,88.63
2017-09-28T06:36:52.151Z,89.67
2017-09-28T06:39:18.602Z,85.33
2017-09-28T06:41:45.030Z,99.97
2017-09-28T06:44:11.484Z,105.43
2017-09-28T06:46:37.907Z,94.30
2017-09-28T06:49:04.322Z,78.30
2017-09-28T06:51:30.716Z,97.40
2017-09-28T06:53:57.889Z,95.63
2017-09-28T06:56:24.294Z,92.53
2017-09-28T06:58:51.470Z,98.60
2017-09-28T07:01:17.912Z,81.83
2017-09-28T07:03:44.338Z,78.43
2017-09-28T07:06:10.733Z,92.80
2017-09-28T07:08:37.243Z,81.90
2017-09-28T07:11:03.706Z,88.40
2017-09-28T07:13:30.840Z,98.47
2017-09-28T07:15:57.221Z,82.93
2017-09-28T07:18:23.725Z,93.43
2017-09-28T07:20:50.223Z,89.60
2017-09-28T07:23:16.638Z,82.00
2017-09-28T07:25:43.036Z,82.27
2017-09-28T07:28:09.497Z,84.07
2017-09-28T07:30:35.939Z,76.83
2017-09-28T07:33:02.371Z,80.60
2017-09-28T07:35:28.879Z,93.47
2017-09-28T07:37:56.028Z,82.77
2017-09-28T07:40:23.179Z,68.57
2017-09-28T07:42:50.285Z,69.83
2017-09-28T07:45:16.750Z,73.23
2017-09-28T07:47:43.876Z,77.30
2017-09-28T07:50:10.300Z,70.70
2017-09-28T07:52:36.721Z,71.00
2017-09-28T07:55:03.176Z,67.17
2017-09-28T07:57:29.626Z,75.33
2017-09-28T07:59:56.060Z,63.10
2017-09-28T08:02:23.269Z,52.87
2017-09-28T08:04:49.737Z,57.47
2017-09-28T08:07:16.152Z,73.80
2017-09-28T08:09:42.605Z,60.43
2017-09-28T08:12:09.048Z,57.70
2017-09-28T08:14:36.340Z,62.60
2017-09-28T08:17:02.763Z,70.57
2017-09-28T08:19:29.251Z,54.83
2017-09-28T08:21:57.177Z,62.13
2017-09-28T08:24:23.647Z,64.47
2017-09-28T08:26:50.132Z,52.60
2017-09-28T08:29:16.579Z,54.43
2017-09-28T08:31:43.007Z,62.43
2017-09-28T08:34:22.245Z,51.70
2017-09-28T08:37:01.803Z,64.80
2017-09-28T08:39:28.270Z,64.50
2017-09-28T08:41:54.728Z,54.13
2017-09-28T08:44:21.912Z,54.40
2017-09-28T08:46:48.353Z,51.47
2017-09-28T08:49:14.794Z,53.83
2017-09-28T08:51:41.219Z,47.80
2017-09-28T08:54:07.815Z,48.20
2017-09-28T08:56:34.960Z,42.90
2017-09-28T08:59:02.136Z,62.63
2017-09-28T09:01:28.606Z,49.73
2017-09-28T09:03:55.102Z,46.60
2017-09-28T09:06:21.578Z,50.97
2017-09-28T09:08:48.036Z,43.60
2017-09-28T09:11:15.216Z,50.53
2017-09-28T09:13:41.636Z,42.20
2017-09-28T09:16:08.856Z,44.57
2017-09-28T09:18:35.292Z,47.40
2017-09-28T09:21:01.729Z,35.17
2017-09-28T09:23:28.981Z,45.13
2017-09-28T09:25:55.395Z,36.70
2017-09-28T09:28:21.846Z,34.83
2017-09-28T09:30:49.033Z,41.33
2017-09-28T09:33:15.474Z,219.07
2017-09-28T09:35:41.922Z,41.83
2017-09-28T09:38:08.457Z,32.77
2017-09-28T09:40:34.943Z,31.47
2017-09-28T09:43:01.357Z,30.80
2017-09-28T09:45:27.777Z,31.60
2017-09-28T09:47:54.235Z,45.87
2017-09-28T09:50:20.723Z,37.33
2017-09-28T09:52:47.151Z,37.37
2017-09-28T09:55:13.577Z,32.43
2017-09-28T09:57:40.019Z,45.90
2017-09-28T10:00:06.496Z,34.90
2017-09-28T10:02:32.920Z,37.37
2017-09-28T10:04:59.416Z,33.33
2017-09-28T10:07:28.785Z,36.93
2017-09-28T10:10:01.112Z,28.67
2017-09-28T10:12:28.750Z,31.13
2017-09-28T10:17:50.926Z,35.23
2017-09-28T10:20:17.399Z,24.00
2017-09-28T10:22:43.830Z,32.03
2017-09-28T10:25:10.249Z,38.90
2017-09-28T10:27:36.676Z,26.03
2017-09-28T10:30:03.066Z,37.57
2017-09-28T10:32:29.564Z,28.10
2017-09-28T10:34:56.040Z,26.03
2017-09-28T10:37:22.420Z,32.77
2017-09-28T10:39:48.823Z,31.13
2017-09-28T10:42:15.272Z,30.23
2017-09-28T10:44:41.684Z,24.50
2017-09-28T10:47:08.106Z,28.23
2017-09-28T10:49:34.508Z,41.17
2017-09-28T10:52:01.620Z,31.60
2017-09-28T10:54:28.038Z,47.03
2017-09-28T10:56:54.451Z,25.23
2017-09-28T10:59:20.876Z,23.73
2017-09-28T11:01:47.264Z,27.17
2017-09-28T11:04:13.655Z,33.53
2017-09-28T11:06:40.073Z,24.53
2017-09-28T11:09:06.502Z,22.47
2017-09-28T11:11:32.918Z,24.73
2017-09-28T11:14:00.089Z,29.67
2017-09-28T11:16:26.490Z,37.10
2017-09-28T11:18:53.665Z,27.17
2017-09-28T11:21:20.080Z,27.17
2017-09-28T11:23:47.222Z,28.80
2017-09-28T11:26:14.478Z,23.00
2017-09-28T11:28:41.935Z,30.77
2017-09-28T11:31:09.076Z,21.07
2017-09-28T11:33:36.977Z,27.50
2017-09-28T11:36:03.397Z,25.90
2017-09-28T11:38:30.570Z,20.17
2017-09-28T11:40:56.979Z,18.57
2017-09-28T11:43:24.275Z,28.10
2017-09-28T11:45:50.677Z,27.07
2017-09-28T11:48:17.832Z,20.63
2017-09-28T11:50:44.281Z,18.93
2017-09-28T11:53:10.708Z,18.30
2017-09-28T11:55:37.093Z,21.77
2017-09-28T11:58:03.512Z,19.40
2017-09-28T12:00:29.947Z,28.33
2017-09-28T12:02:56.368Z,20.20
2017-09-28T12:05:22.741Z,20.87
2017-09-28T12:07:49.890Z,18.13
2017-09-28T12:10:17.028Z,20.30
2017-09-28T12:12:43.428Z,21.10
2017-09-28T12:15:09.833Z,24.40
2017-09-28T12:17:36.254Z,17.33
2017-09-28T12:20:03.406Z,15.83
2017-09-28T12:22:29.804Z,26.60
2017-09-28T12:24:56.204Z,22.00
2017-09-28T12:27:22.638Z,22.80
2017-09-28T12:29:49.013Z,24.60
2017-09-28T12:32:16.138Z,15.30
2017-09-28T12:34:42.576Z,24.13
2017-09-28T12:37:08.983Z,21.90
2017-09-28T12:39:35.394Z,19.20
2017-09-28T12:42:01.816Z,24.67
2017-09-28T12:44:28.227Z,22.37
2017-09-28T12:46:55.466Z,30.13
2017-09-28T12:49:21.936Z,27.30
2017-09-28T12:51:48.334Z,22.43
2017-09-28T12:54:16.208Z,28.63
2017-09-28T12:56:42.645Z,21.03
2017-09-28T12:59:09.792Z,24.20
2017-09-28T13:01:36.196Z,19.67
2017-09-28T13:04:02.622Z,25.90
2017-09-28T13:06:29.096Z,25.27
2017-09-28T13:08:56.259Z,44.10
2017-09-28T13:11:23.388Z,33.57
2017-09-28T13:13:49.796Z,27.37
2017-09-28T13:16:16.180Z,19.97
2017-09-28T13:18:43.309Z,20.50
2017-09-28T13:21:11.180Z,24.53
2017-09-28T13:23:37.576Z,63.87
2017-09-28T13:26:04.007Z,22.00
2017-09-28T13:28:30.414Z,33.80
2017-09-28T13:30:56.810Z,25.17
2017-09-28T13:33:23.985Z,24.17
2017-09-28T13:35:50.393Z,22.63
2017-09-28T13:38:17.545Z,20.17
2017-09-28T13:40:44.713Z,22.87
2017-09-28T13:43:11.880Z,21.00
2017-09-28T13:45:38.301Z,25.60
2017-09-28T13:48:04.734Z,21.40
2017-09-28T13:50:31.134Z,17.70
2017-09-28T13:52:58.286Z,16.80
2017-09-28T13:55:24.788Z,19.60
2017-09-28T13:57:51.196Z,23.33
2017-09-28T14:00:17.620Z,40.77
2017-09-28T14:02:44.034Z,35.23
2017-09-28T14:05:11.211Z,73.57
2017-09-28T14:07:37.605Z,37.47
2017-09-28T14:10:04.787Z,29.53
2017-09-28T14:12:31.498Z,18.17
2017-09-28T14:14:57.886Z,22.33
2017-09-28T14:17:24.304Z,22.77
2017-09-28T14:19:50.710Z,18.60
2017-09-28T14:22:17.843Z,18.83
2017-09-28T14:24:44.976Z,17.17
2017-09-28T14:27:11.416Z,19.60
2017-09-28T14:29:37.823Z,19.37
2017-09-28T14:32:04.224Z,25.97
2017-09-28T14:34:30.659Z,35.67
2017-09-28T14:36:57.063Z,16.50
2017-09-28T14:39:23.449Z,18.97
2017-09-28T14:41:49.840Z,16.97
2017-09-28T14:44:17.008Z,20.60
2017-09-28T14:46:43.440Z,22.83
2017-09-28T14:49:09.864Z,16.33
2017-09-28T14:51:36.999Z,14.30
2017-09-28T14:54:04.141Z,25.23
2017-09-28T14:56:30.549Z,24.43
2017-09-28T14:58:56.969Z,19.53
2017-09-28T15:01:23.373Z,46.93
2017-09-28T15:03:49.784Z,37.20
2017-09-28T15:06:16.949Z,24.33
2017-09-28T15:08:43.350Z,18.33
2017-09-28T15:11:09.772Z,38.43
2017-09-28T15:13:36.150Z,55.97
2017-09-28T15:16:02.590Z,98.97
2017-09-28T15:18:29.087Z,39.30
2017-09-28T15:20:56.287Z,18.53
2017-09-28T15:23:22.700Z,18.97
2017-09-28T15:25:49.155Z,21.37
2017-09-28T15:28:15.610Z,29.57
2017-09-28T15:30:42.029Z,19.90
2017-09-28T15:33:08.432Z,23.90
2017-09-28T15:35:34.825Z,30.33
2017-09-28T15:38:01.232Z,18.50
2017-09-28T15:40:27.657Z,15.53
2017-09-28T15:42:54.045Z,22.83
2017-09-28T15:45:21.201Z,24.63
2017-09-28T15:47:47.738Z,18.20
2017-09-28T15:50:14.041Z,20.83
2017-09-28T15:52:40.442Z,16.73
2017-09-28T15:55:06.846Z,15.77
2017-09-28T15:57:33.289Z,22.87
2017-09-28T15:59:59.709Z,26.93
2017-09-28T16:02:26.118Z,19.50
2017-09-28T16:04:53.290Z,22.30
2017-09-28T16:07:19.812Z,22.83
2017-09-28T16:09:46.248Z,18.70
2017-09-28T16:12:13.392Z,19.47
2017-09-28T16:14:40.562Z,23.63
2017-09-28T16:17:06.962Z,28.80
2017-09-28T16:19:33.367Z,20.90
2017-09-28T16:21:59.820Z,20.83
2017-09-28T16:24:26.308Z,24.80
2017-09-28T16:26:52.727Z,29.00
2017-09-28T16:29:19.136Z,136.93
2017-09-28T16:31:46.286Z,69.40
2017-09-28T16:34:12.656Z,31.50
2017-09-28T16:36:39.072Z,120.80
2017-09-28T16:39:06.225Z,32.07
2017-09-28T16:41:32.616Z,22.60
2017-09-28T16:43:59.041Z,17.23
2017-09-28T16:46:25.435Z,16.80
2017-09-28T16:48:51.860Z,20.83
2017-09-28T16:51:18.254Z,20.37
2017-09-28T16:53:44.650Z,25.67
2017-09-28T16:56:11.145Z,17.80
2017-09-28T16:58:37.566Z,20.70
2017-09-28T17:01:03.965Z,31.53
2017-09-28T17:03:30.365Z,18.67
2017-09-28T17:05:56.745Z,20.50
2017-09-28T17:08:23.146Z,15.77
2017-09-28T17:10:49.529Z,15.17
2017-09-28T17:13:16.657Z,22.80
2017-09-28T17:15:43.111Z,19.00
2017-09-28T17:18:10.232Z,25.60
2017-09-28T17:20:36.616Z,16.07
2017-09-28T17:23:03.078Z,39.23
2017-09-28T17:25:29.521Z,29.50
2017-09-28T17:27:56.027Z,25.63
2017-09-28T17:30:22.445Z,22.80
2017-09-28T17:32:48.853Z,20.63
2017-09-28T17:35:15.246Z,18.40
2017-09-28T17:37:41.642Z,20.90
2017-09-28T17:40:08.816Z,21.77
2017-09-28T17:42:35.205Z,33.07
2017-09-28T17:45:01.632Z,23.43
2017-09-28T17:47:28.096Z,16.80
2017-09-28T17:49:54.484Z,27.37
2017-09-28T17:52:20.885Z,18.50
2017-09-28T17:54:47.269Z,18.93
2017-09-28T17:57:14.435Z,24.57
2017-09-28T17:59:41.574Z,27.00
2017-09-28T18:02:08.744Z,13.50
2017-09-28T18:04:35.184Z,22.80
2017-09-28T18:07:01.616Z,22.60
2017-09-28T18:09:28.057Z,16.43
2017-09-28T18:11:54.459Z,15.33
2017-09-28T18:14:21.648Z,23.90
2017-09-28T18:16:48.147Z,11.80
2017-09-28T18:19:15.278Z,16.33
2017-09-28T18:21:41.702Z,18.97
2017-09-28T18:24:08.856Z,19.37
2017-09-28T18:26:36.065Z,18.10
2017-09-28T18:29:02.646Z,21.20
2017-09-28T18:31:29.822Z,19.90
2017-09-28T18:33:56.242Z,21.43
2017-09-28T18:36:23.394Z,18.93
2017-09-28T18:38:50.587Z,14.47
2017-09-28T18:41:17.016Z,21.03
2017-09-28T18:43:43.430Z,22.87
2017-09-28T18:46:09.881Z,24.90
2017-09-28T18:48:36.311Z,18.10
2017-09-28T18:51:02.753Z,32.63
2017-09-28T18:53:29.243Z,22.43
2017-09-28T18:55:56.442Z,16.77
2017-09-28T18:58:22.879Z,136.97
2017-09-28T19:00:49.305Z,48.83
2017-09-28T19:03:15.732Z,18.30
2017-09-28T19:05:42.211Z,16.10
2017-09-28T19:08:09.467Z,15.57
2017-09-28T19:10:36.646Z,17.73
2017-09-28T19:13:03.072Z,16.20
2017-09-28T19:15:30.231Z,18.83
2017-09-28T19:17:56.648Z,26.67
2017-09-28T19:20:23.863Z,16.80
2017-09-28T19:22:50.284Z,21.47
2017-09-28T19:25:16.733Z,19.53
2017-09-28T19:27:43.183Z,19.00
2017-09-28T19:30:09.699Z,18.60
2017-09-28T19:32:36.125Z,23.37
2017-09-28T19:35:02.594Z,22.73
2017-09-28T19:37:29.784Z,18.83
2017-09-28T19:39:56.269Z,19.83
2017-09-28T19:42:23.436Z,17.70
2017-09-28T19:44:50.674Z,19.90
2017-09-28T19:47:17.911Z,23.13
2017-09-28T19:49:44.321Z,14.67
2017-09-28T19:52:10.717Z,17.80
2017-09-28T19:54:37.882Z,17.30
2017-09-28T19:57:04.311Z,20.30
2017-09-28T19:59:30.737Z,21.73
2017-09-28T20:01:57.858Z,19.50
2017-09-28T20:04:25.006Z,17.93
2017-09-28T20:06:51.412Z,39.50
2017-09-28T20:09:17.835Z,33.17
2017-09-28T20:11:44.244Z,20.47
2017-09-28T20:14:10.708Z,20.20
2017-09-28T20:16:37.178Z,19.60
2017-09-28T20:19:04.358Z,15.93
2017-09-28T20:21:30.793Z,16.37
2017-09-28T20:23:57.227Z,18.43
2017-09-28T20:26:23.653Z,22.53
2017-09-28T20:28:50.053Z,26.00
2017-09-28T20:31:16.496Z,18.60
2017-09-28T20:33:43.634Z,18.87
2017-09-28T20:36:10.036Z,19.83
2017-09-28T20:38:36.466Z,21.37
2017-09-28T20:41:02.952Z,33.43
2017-09-28T20:43:30.118Z,19.43
2017-09-28T20:45:56.592Z,22.27
2017-09-28T20:48:23.020Z,20.33
2017-09-28T20:50:49.471Z,17.97
2017-09-28T20:53:15.910Z,18.37
2017-09-28T20:55:42.346Z,16.30
2017-09-28T20:58:09.667Z,16.57
2017-09-28T21:00:36.157Z,19.70
2017-09-28T21:03:03.334Z,22.97
2017-09-28T21:05:29.758Z,23.23
2017-09-28T21:07:56.196Z,26.07
2017-09-28T21:10:22.658Z,22.97
2017-09-28T21:12:49.061Z,33.63
2017-09-28T21:15:15.563Z,25.53
2017-09-28T21:17:42.715Z,21.90
2017-09-28T21:20:09.128Z,28.67
2017-09-28T21:22:35.523Z,27.83
2017-09-28T21:25:01.934Z,28.13
2017-09-28T21:27:28.328Z,25.40
2017-09-28T21:29:54.718Z,24.23
2017-09-28T21:32:21.135Z,23.37
2017-09-28T21:34:47.619Z,26.70
2017-09-28T21:37:14.006Z,24.87
2017-09-28T21:39:40.394Z,23.00
2017-09-28T21:42:06.797Z,34.70
2017-09-28T21:44:33.201Z,25.57
2017-09-28T21:46:59.631Z,24.00
2017-09-28T21:49:26.086Z,23.27
2017-09-28T21:51:52.563Z,36.03
2017-09-28T21:54:19.049Z,21.67
2017-09-28T21:56:45.468Z,31.77
2017-09-28T21:59:11.861Z,21.10
2017-09-28T22:01:38.269Z,23.20
2017-09-28T22:04:04.713Z,19.77
2017-09-28T22:06:31.164Z,20.80
2017-09-28T22:08:59.059Z,22.20
2017-09-28T22:11:26.181Z,21.90
2017-09-28T22:13:52.597Z,25.43
2017-09-28T22:16:18.991Z,27.90
2017-09-28T22:18:45.392Z,33.03
2017-09-28T22:21:11.946Z,26.93
2017-09-28T22:23:38.362Z,23.67
2017-09-28T22:26:05.543Z,26.50
2017-09-28T22:28:31.960Z,26.90
2017-09-28T22:30:58.403Z,25.37
2017-09-28T22:33:24.815Z,27.80
2017-09-28T22:35:51.959Z,27.93
2017-09-28T22:38:19.084Z,32.23
2017-09-28T22:40:45.520Z,24.60
2017-09-28T22:43:11.919Z,26.83
2017-09-28T22:45:38.326Z,25.40
2017-09-28T22:48:04.782Z,28.33
2017-09-28T22:50:31.269Z,21.83
2017-09-28T22:52:58.475Z,27.93
2017-09-28T22:55:24.890Z,22.53
2017-09-28T22:57:51.295Z,27.70
2017-09-28T23:00:17.708Z,25.33
2017-09-28T23:02:44.916Z,26.33
2017-09-28T23:05:11.318Z,31.27
2017-09-28T23:07:38.431Z,26.50
2017-09-28T23:10:04.854Z,23.17
2017-09-28T23:12:31.253Z,30.60
2017-09-28T23:14:57.645Z,31.60
2017-09-28T23:17:24.048Z,26.27
2017-09-28T23:19:50.462Z,28.63
2017-09-28T23:22:16.882Z,29.50
2017-09-28T23:24:43.296Z,24.73
2017-09-28T23:27:09.691Z,23.30
2017-09-28T23:29:36.132Z,27.23
2017-09-28T23:32:02.533Z,24.03
2017-09-28T23:34:28.965Z,28.60
2017-09-28T23:36:55.353Z,28.87
2017-09-28T23:39:21.823Z,31.23
2017-09-28T23:41:48.209Z,23.13
2017-09-28T23:44:15.345Z,30.93
2017-09-28T23:46:41.738Z,22.10
2017-09-28T23:49:08.141Z,27.93
2017-09-28T23:51:35.265Z,26.23
2017-09-28T23:54:01.664Z,25.93
2017-09-28T23:56:28.105Z,34.23
2017-09-28T23:58:56.020Z,32.83
